sensor_id;sensor_type;location;lat;lon;timestamp;P1;durP1;ratioP1;P2;durP2;ratioP2
69783;SDS011;57054;51.978;4.498;2023-11-18T00:02:21;10.02;;;8.30;;
69783;SDS011;57054;51.978;4.498;2023-11-18T00:04:47;9.82;;;8.85;;
69783;SDS011;57054;51.978;4.498;2023-11-18T00:07:12;9.95;;;8.95;;
69783;SDS011;57054;51.978;4.498;2023-11-18T00:09:38;9.98;;;8.73;;
69783;SDS011;57054;51.978;4.498;2023-11-18T00:12:03;10.55;;;8.55;;
69783;SDS011;57054;51.978;4.498;2023-11-18T00:14:30;10.07;;;8.50;;
69783;SDS011;57054;51.978;4.498;2023-11-18T00:16:56;12.43;;;9.52;;
69783;SDS011;57054;51.978;4.498;2023-11-18T00:19:24;11.70;;;8.93;;
69783;SDS011;57054;51.978;4.498;2023-11-18T00:21:49;10.27;;;9.02;;
69783;SDS011;57054;51.978;4.498;2023-11-18T00:24:14;11.00;;;8.90;;
69783;SDS011;57054;51.978;4.498;2023-11-18T00:26:40;11.98;;;9.45;;
69783;SDS011;57054;51.978;4.498;2023-11-18T00:29:05;9.70;;;8.80;;
69783;SDS011;57054;51.978;4.498;2023-11-18T00:31:30;12.13;;;8.93;;
69783;SDS011;57054;51.978;4.498;2023-11-18T00:33:56;9.70;;;8.68;;
69783;SDS011;57054;51.978;4.498;2023-11-18T00:36:21;10.25;;;9.15;;
69783;SDS011;57054;51.978;4.498;2023-11-18T00:38:47;13.80;;;9.35;;
69783;SDS011;57054;51.978;4.498;2023-11-18T00:41:12;10.00;;;8.82;;
69783;SDS011;57054;51.978;4.498;2023-11-18T00:43:37;15.30;;;9.15;;
69783;SDS011;57054;51.978;4.498;2023-11-18T00:46:03;11.27;;;9.10;;
69783;SDS011;57054;51.978;4.498;2023-11-18T00:48:30;10.35;;;9.25;;
69783;SDS011;57054;51.978;4.498;2023-11-18T00:50:55;17.35;;;9.55;;
69783;SDS011;57054;51.978;4.498;2023-11-18T00:53:21;11.00;;;9.05;;
69783;SDS011;57054;51.978;4.498;2023-11-18T00:55:47;17.17;;;10.15;;
69783;SDS011;57054;51.978;4.498;2023-11-18T00:58:12;14.48;;;9.50;;
69783;SDS011;57054;51.978;4.498;2023-11-18T01:00:38;13.98;;;10.02;;
69783;SDS011;57054;51.978;4.498;2023-11-18T01:03:04;14.68;;;10.07;;
69783;SDS011;57054;51.978;4.498;2023-11-18T01:05:29;14.27;;;9.73;;
69783;SDS011;57054;51.978;4.498;2023-11-18T01:07:56;14.10;;;10.30;;
69783;SDS011;57054;51.978;4.498;2023-11-18T01:10:22;14.50;;;9.27;;
69783;SDS011;57054;51.978;4.498;2023-11-18T01:12:48;12.68;;;9.82;;
69783;SDS011;57054;51.978;4.498;2023-11-18T01:15:14;11.18;;;9.65;;
69783;SDS011;57054;51.978;4.498;2023-11-18T01:17:39;13.10;;;8.73;;
69783;SDS011;57054;51.978;4.498;2023-11-18T01:20:06;11.85;;;9.27;;
69783;SDS011;57054;51.978;4.498;2023-11-18T01:22:36;16.95;;;10.00;;
69783;SDS011;57054;51.978;4.498;2023-11-18T01:25:03;10.95;;;9.05;;
69783;SDS011;57054;51.978;4.498;2023-11-18T01:27:29;12.70;;;9.68;;
69783;SDS011;57054;51.978;4.498;2023-11-18T01:29:55;11.32;;;9.20;;
69783;SDS011;57054;51.978;4.498;2023-11-18T01:32:20;11.18;;;9.75;;
69783;SDS011;57054;51.978;4.498;2023-11-18T01:34:45;10.10;;;9.07;;
69783;SDS011;57054;51.978;4.498;2023-11-18T01:37:15;15.43;;;9.43;;
69783;SDS011;57054;51.978;4.498;2023-11-18T01:39:41;12.57;;;9.38;;
69783;SDS011;57054;51.978;4.498;2023-11-18T01:42:06;10.10;;;8.98;;
69783;SDS011;57054;51.978;4.498;2023-11-18T01:44:32;11.00;;;9.20;;
69783;SDS011;57054;51.978;4.498;2023-11-18T01:46:58;10.55;;;8.85;;
69783;SDS011;57054;51.978;4.498;2023-11-18T01:49:24;10.48;;;9.07;;
69783;SDS011;57054;51.978;4.498;2023-11-18T01:51:52;16.80;;;9.70;;
69783;SDS011;57054;51.978;4.498;2023-11-18T01:54:18;13.73;;;9.40;;
69783;SDS011;57054;51.978;4.498;2023-11-18T01:56:45;13.57;;;9.55;;
69783;SDS011;57054;51.978;4.498;2023-11-18T01:59:12;11.52;;;9.55;;
69783;SDS011;57054;51.978;4.498;2023-11-18T02:01:44;15.70;;;9.93;;
69783;SDS011;57054;51.978;4.498;2023-11-18T02:04:13;13.05;;;10.27;;
69783;SDS011;57054;51.978;4.498;2023-11-18T02:06:38;11.75;;;9.95;;
69783;SDS011;57054;51.978;4.498;2023-11-18T02:09:04;11.15;;;9.57;;
69783;SDS011;57054;51.978;4.498;2023-11-18T02:11:31;14.75;;;9.65;;
69783;SDS011;57054;51.978;4.498;2023-11-18T02:14:12;12.15;;;9.70;;
69783;SDS011;57054;51.978;4.498;2023-11-18T02:16:41;13.38;;;10.93;;
69783;SDS011;57054;51.978;4.498;2023-11-18T02:19:09;15.30;;;10.82;;
69783;SDS011;57054;51.978;4.498;2023-11-18T02:21:45;17.38;;;9.75;;
69783;SDS011;57054;51.978;4.498;2023-11-18T02:24:24;15.98;;;11.40;;
69783;SDS011;57054;51.978;4.498;2023-11-18T02:26:50;13.70;;;10.65;;
69783;SDS011;57054;51.978;4.498;2023-11-18T02:29:15;14.38;;;11.40;;
69783;SDS011;57054;51.978;4.498;2023-11-18T02:31:40;15.18;;;10.52;;
69783;SDS011;57054;51.978;4.498;2023-11-18T02:34:12;17.75;;;11.82;;
69783;SDS011;57054;51.978;4.498;2023-11-18T02:36:43;14.88;;;11.10;;
69783;SDS011;57054;51.978;4.498;2023-11-18T02:39:12;13.27;;;10.68;;
69783;SDS011;57054;51.978;4.498;2023-11-18T02:41:42;16.13;;;11.38;;
69783;SDS011;57054;51.978;4.498;2023-11-18T02:44:13;25.15;;;12.15;;
69783;SDS011;57054;51.978;4.498;2023-11-18T02:46:42;14.93;;;11.27;;
69783;SDS011;57054;51.978;4.498;2023-11-18T02:49:08;18.45;;;10.57;;
69783;SDS011;57054;51.978;4.498;2023-11-18T02:51:35;15.20;;;10.48;;
69783;SDS011;57054;51.978;4.498;2023-11-18T02:54:04;12.27;;;9.88;;
69783;SDS011;57054;51.978;4.498;2023-11-18T02:56:35;12.85;;;10.55;;
69783;SDS011;57054;51.978;4.498;2023-11-18T02:59:04;17.48;;;10.95;;
69783;SDS011;57054;51.978;4.498;2023-11-18T03:01:33;11.52;;;9.73;;
69783;SDS011;57054;51.978;4.498;2023-11-18T03:03:59;11.45;;;9.40;;
69783;SDS011;57054;51.978;4.498;2023-11-18T03:06:25;13.00;;;9.15;;
69783;SDS011;57054;51.978;4.498;2023-11-18T03:08:50;12.07;;;9.85;;
69783;SDS011;57054;51.978;4.498;2023-11-18T03:11:16;12.50;;;9.80;;
69783;SDS011;57054;51.978;4.498;2023-11-18T03:13:42;11.30;;;10.15;;
69783;SDS011;57054;51.978;4.498;2023-11-18T03:16:08;13.55;;;9.68;;
69783;SDS011;57054;51.978;4.498;2023-11-18T03:18:37;12.75;;;10.45;;
69783;SDS011;57054;51.978;4.498;2023-11-18T03:21:12;13.55;;;9.30;;
69783;SDS011;57054;51.978;4.498;2023-11-18T03:23:38;13.00;;;9.63;;
69783;SDS011;57054;51.978;4.498;2023-11-18T03:26:04;15.18;;;10.52;;
69783;SDS011;57054;51.978;4.498;2023-11-18T03:28:30;13.68;;;10.48;;
69783;SDS011;57054;51.978;4.498;2023-11-18T03:30:56;13.95;;;9.85;;
69783;SDS011;57054;51.978;4.498;2023-11-18T03:33:22;13.25;;;9.27;;
69783;SDS011;57054;51.978;4.498;2023-11-18T03:35:47;12.90;;;9.45;;
69783;SDS011;57054;51.978;4.498;2023-11-18T03:38:13;13.48;;;9.32;;
69783;SDS011;57054;51.978;4.498;2023-11-18T03:40:40;10.70;;;9.63;;
69783;SDS011;57054;51.978;4.498;2023-11-18T03:43:06;17.70;;;10.27;;
69783;SDS011;57054;51.978;4.498;2023-11-18T03:45:32;13.60;;;9.45;;
69783;SDS011;57054;51.978;4.498;2023-11-18T03:47:58;15.98;;;9.88;;
69783;SDS011;57054;51.978;4.498;2023-11-18T03:50:24;15.18;;;10.98;;
69783;SDS011;57054;51.978;4.498;2023-11-18T03:52:49;14.30;;;9.75;;
69783;SDS011;57054;51.978;4.498;2023-11-18T03:55:15;14.95;;;10.52;;
69783;SDS011;57054;51.978;4.498;2023-11-18T03:57:40;12.38;;;10.60;;
69783;SDS011;57054;51.978;4.498;2023-11-18T04:00:06;17.02;;;11.13;;
69783;SDS011;57054;51.978;4.498;2023-11-18T04:02:32;21.02;;;11.77;;
69783;SDS011;57054;51.978;4.498;2023-11-18T04:04:59;14.50;;;10.88;;
69783;SDS011;57054;51.978;4.498;2023-11-18T04:07:24;18.02;;;10.73;;
69783;SDS011;57054;51.978;4.498;2023-11-18T04:09:50;18.15;;;12.00;;
69783;SDS011;57054;51.978;4.498;2023-11-18T04:12:15;18.63;;;10.65;;
69783;SDS011;57054;51.978;4.498;2023-11-18T04:14:41;13.27;;;10.32;;
69783;SDS011;57054;51.978;4.498;2023-11-18T04:17:06;16.50;;;12.02;;
69783;SDS011;57054;51.978;4.498;2023-11-18T04:19:31;15.57;;;10.98;;
69783;SDS011;57054;51.978;4.498;2023-11-18T04:21:57;13.10;;;10.27;;
69783;SDS011;57054;51.978;4.498;2023-11-18T04:24:22;17.42;;;11.85;;
69783;SDS011;57054;51.978;4.498;2023-11-18T04:26:47;15.85;;;10.50;;
69783;SDS011;57054;51.978;4.498;2023-11-18T04:29:14;19.63;;;12.57;;
69783;SDS011;57054;51.978;4.498;2023-11-18T04:31:39;16.77;;;11.02;;
69783;SDS011;57054;51.978;4.498;2023-11-18T04:34:05;13.70;;;11.00;;
69783;SDS011;57054;51.978;4.498;2023-11-18T04:36:30;14.52;;;10.90;;
69783;SDS011;57054;51.978;4.498;2023-11-18T04:38:56;10.60;;;9.15;;
69783;SDS011;57054;51.978;4.498;2023-11-18T04:41:22;20.77;;;12.43;;
69783;SDS011;57054;51.978;4.498;2023-11-18T04:43:47;17.85;;;11.80;;
69783;SDS011;57054;51.978;4.498;2023-11-18T04:46:13;15.75;;;10.88;;
69783;SDS011;57054;51.978;4.498;2023-11-18T04:48:38;14.43;;;10.88;;
69783;SDS011;57054;51.978;4.498;2023-11-18T04:51:04;17.20;;;10.95;;
69783;SDS011;57054;51.978;4.498;2023-11-18T04:53:30;16.67;;;11.30;;
69783;SDS011;57054;51.978;4.498;2023-11-18T04:55:56;17.20;;;11.32;;
69783;SDS011;57054;51.978;4.498;2023-11-18T04:58:23;20.45;;;10.93;;
69783;SDS011;57054;51.978;4.498;2023-11-18T05:00:49;18.13;;;11.25;;
69783;SDS011;57054;51.978;4.498;2023-11-18T05:03:15;16.35;;;11.23;;
69783;SDS011;57054;51.978;4.498;2023-11-18T05:05:41;21.25;;;11.95;;
69783;SDS011;57054;51.978;4.498;2023-11-18T05:08:07;20.35;;;11.32;;
69783;SDS011;57054;51.978;4.498;2023-11-18T05:10:33;18.95;;;11.60;;
69783;SDS011;57054;51.978;4.498;2023-11-18T05:13:03;16.02;;;11.68;;
69783;SDS011;57054;51.978;4.498;2023-11-18T05:15:28;18.08;;;10.90;;
69783;SDS011;57054;51.978;4.498;2023-11-18T05:17:55;16.15;;;11.25;;
69783;SDS011;57054;51.978;4.498;2023-11-18T05:20:21;20.30;;;11.50;;
69783;SDS011;57054;51.978;4.498;2023-11-18T05:22:47;15.48;;;11.02;;
69783;SDS011;57054;51.978;4.498;2023-11-18T05:25:13;19.67;;;11.85;;
69783;SDS011;57054;51.978;4.498;2023-11-18T05:27:39;16.05;;;10.90;;
69783;SDS011;57054;51.978;4.498;2023-11-18T05:30:09;15.95;;;11.27;;
69783;SDS011;57054;51.978;4.498;2023-11-18T05:32:35;20.85;;;11.30;;
69783;SDS011;57054;51.978;4.498;2023-11-18T05:35:01;17.27;;;11.18;;
69783;SDS011;57054;51.978;4.498;2023-11-18T05:37:29;14.00;;;10.68;;
69783;SDS011;57054;51.978;4.498;2023-11-18T05:40:00;18.48;;;10.48;;
69783;SDS011;57054;51.978;4.498;2023-11-18T05:42:31;14.13;;;10.68;;
69783;SDS011;57054;51.978;4.498;2023-11-18T05:44:56;16.20;;;10.23;;
69783;SDS011;57054;51.978;4.498;2023-11-18T05:47:25;16.23;;;10.32;;
69783;SDS011;57054;51.978;4.498;2023-11-18T05:49:51;23.48;;;10.85;;
69783;SDS011;57054;51.978;4.498;2023-11-18T05:52:18;21.90;;;12.05;;
69783;SDS011;57054;51.978;4.498;2023-11-18T05:54:45;18.90;;;10.90;;
69783;SDS011;57054;51.978;4.498;2023-11-18T05:57:12;19.80;;;10.85;;
69783;SDS011;57054;51.978;4.498;2023-11-18T05:59:38;12.35;;;10.13;;
69783;SDS011;57054;51.978;4.498;2023-11-18T06:02:03;14.82;;;10.48;;
69783;SDS011;57054;51.978;4.498;2023-11-18T06:04:28;16.42;;;10.48;;
69783;SDS011;57054;51.978;4.498;2023-11-18T06:06:54;21.70;;;11.57;;
69783;SDS011;57054;51.978;4.498;2023-11-18T06:09:20;15.30;;;9.40;;
69783;SDS011;57054;51.978;4.498;2023-11-18T06:11:50;16.55;;;9.80;;
69783;SDS011;57054;51.978;4.498;2023-11-18T06:14:18;17.45;;;10.52;;
69783;SDS011;57054;51.978;4.498;2023-11-18T06:16:44;12.98;;;9.02;;
69783;SDS011;57054;51.978;4.498;2023-11-18T06:19:09;16.42;;;10.57;;
69783;SDS011;57054;51.978;4.498;2023-11-18T06:21:35;13.77;;;8.93;;
69783;SDS011;57054;51.978;4.498;2023-11-18T06:24:01;18.85;;;10.07;;
69783;SDS011;57054;51.978;4.498;2023-11-18T06:26:31;14.90;;;9.10;;
69783;SDS011;57054;51.978;4.498;2023-11-18T06:28:56;16.85;;;9.63;;
69783;SDS011;57054;51.978;4.498;2023-11-18T06:31:22;15.88;;;9.85;;
69783;SDS011;57054;51.978;4.498;2023-11-18T06:33:51;16.23;;;9.85;;
69783;SDS011;57054;51.978;4.498;2023-11-18T06:36:17;15.88;;;10.45;;
69783;SDS011;57054;51.978;4.498;2023-11-18T06:38:44;13.55;;;9.52;;
69783;SDS011;57054;51.978;4.498;2023-11-18T06:41:11;18.67;;;9.35;;
69783;SDS011;57054;51.978;4.498;2023-11-18T06:43:40;16.30;;;9.43;;
69783;SDS011;57054;51.978;4.498;2023-11-18T06:48:50;15.48;;;9.50;;
69783;SDS011;57054;51.978;4.498;2023-11-18T06:51:19;11.35;;;8.05;;
69783;SDS011;57054;51.978;4.498;2023-11-18T06:53:52;21.23;;;9.70;;
69783;SDS011;57054;51.978;4.498;2023-11-18T06:56:25;17.50;;;8.57;;
69783;SDS011;57054;51.978;4.498;2023-11-18T06:58:51;13.13;;;7.95;;
69783;SDS011;57054;51.978;4.498;2023-11-18T07:01:17;19.15;;;9.07;;
69783;SDS011;57054;51.978;4.498;2023-11-18T07:03:43;14.02;;;8.35;;
69783;SDS011;57054;51.978;4.498;2023-11-18T07:06:10;18.00;;;8.48;;
69783;SDS011;57054;51.978;4.498;2023-11-18T07:08:36;17.92;;;8.50;;
69783;SDS011;57054;51.978;4.498;2023-11-18T07:11:02;19.50;;;8.93;;
69783;SDS011;57054;51.978;4.498;2023-11-18T07:13:28;20.67;;;8.40;;
69783;SDS011;57054;51.978;4.498;2023-11-18T07:15:54;21.08;;;8.95;;
69783;SDS011;57054;51.978;4.498;2023-11-18T07:18:21;13.68;;;7.63;;
69783;SDS011;57054;51.978;4.498;2023-11-18T07:20:48;14.73;;;7.90;;
69783;SDS011;57054;51.978;4.498;2023-11-18T07:23:14;11.27;;;7.35;;
69783;SDS011;57054;51.978;4.498;2023-11-18T07:25:39;19.67;;;8.98;;
69783;SDS011;57054;51.978;4.498;2023-11-18T07:28:05;16.98;;;8.45;;
69783;SDS011;57054;51.978;4.498;2023-11-18T07:30:33;17.98;;;8.75;;
69783;SDS011;57054;51.978;4.498;2023-11-18T07:33:00;16.67;;;7.05;;
69783;SDS011;57054;51.978;4.498;2023-11-18T07:35:26;10.93;;;7.60;;
69783;SDS011;57054;51.978;4.498;2023-11-18T07:37:52;15.52;;;7.50;;
69783;SDS011;57054;51.978;4.498;2023-11-18T07:40:18;12.18;;;7.50;;
69783;SDS011;57054;51.978;4.498;2023-11-18T07:42:53;11.18;;;7.15;;
69783;SDS011;57054;51.978;4.498;2023-11-18T07:45:21;19.38;;;7.75;;
69783;SDS011;57054;51.978;4.498;2023-11-18T07:47:49;17.40;;;7.43;;
69783;SDS011;57054;51.978;4.498;2023-11-18T07:50:16;18.10;;;7.53;;
69783;SDS011;57054;51.978;4.498;2023-11-18T07:52:46;13.48;;;6.90;;
69783;SDS011;57054;51.978;4.498;2023-11-18T07:55:13;10.60;;;6.82;;
69783;SDS011;57054;51.978;4.498;2023-11-18T07:57:39;12.15;;;6.03;;
69783;SDS011;57054;51.978;4.498;2023-11-18T08:00:05;15.25;;;6.57;;
69783;SDS011;57054;51.978;4.498;2023-11-18T08:02:37;23.35;;;7.22;;
69783;SDS011;57054;51.978;4.498;2023-11-18T08:05:05;12.82;;;6.82;;
69783;SDS011;57054;51.978;4.498;2023-11-18T08:07:43;14.50;;;6.82;;
69783;SDS011;57054;51.978;4.498;2023-11-18T08:10:11;10.32;;;5.50;;
69783;SDS011;57054;51.978;4.498;2023-11-18T08:12:43;9.90;;;5.95;;
69783;SDS011;57054;51.978;4.498;2023-11-18T08:15:09;12.70;;;6.30;;
69783;SDS011;57054;51.978;4.498;2023-11-18T08:17:35;14.45;;;6.40;;
69783;SDS011;57054;51.978;4.498;2023-11-18T08:20:01;12.02;;;6.70;;
69783;SDS011;57054;51.978;4.498;2023-11-18T08:22:38;13.13;;;6.13;;
69783;SDS011;57054;51.978;4.498;2023-11-18T08:25:03;10.48;;;5.78;;
69783;SDS011;57054;51.978;4.498;2023-11-18T08:27:33;16.00;;;6.78;;
69783;SDS011;57054;51.978;4.498;2023-11-18T08:29:59;13.25;;;6.20;;
69783;SDS011;57054;51.978;4.498;2023-11-18T08:32:24;13.07;;;5.95;;
69783;SDS011;57054;51.978;4.498;2023-11-18T08:34:50;16.30;;;6.07;;
69783;SDS011;57054;51.978;4.498;2023-11-18T08:37:16;14.98;;;6.40;;
69783;SDS011;57054;51.978;4.498;2023-11-18T08:39:42;11.13;;;5.90;;
69783;SDS011;57054;51.978;4.498;2023-11-18T08:42:07;18.73;;;7.20;;
69783;SDS011;57054;51.978;4.498;2023-11-18T08:44:32;18.98;;;7.18;;
69783;SDS011;57054;51.978;4.498;2023-11-18T08:46:58;16.42;;;7.28;;
69783;SDS011;57054;51.978;4.498;2023-11-18T08:49:24;12.80;;;6.38;;
69783;SDS011;57054;51.978;4.498;2023-11-18T08:51:50;12.73;;;6.13;;
69783;SDS011;57054;51.978;4.498;2023-11-18T08:54:26;17.52;;;6.80;;
69783;SDS011;57054;51.978;4.498;2023-11-18T08:57:01;12.80;;;6.28;;
69783;SDS011;57054;51.978;4.498;2023-11-18T08:59:44;14.00;;;6.13;;
69783;SDS011;57054;51.978;4.498;2023-11-18T09:02:10;17.02;;;6.20;;
69783;SDS011;57054;51.978;4.498;2023-11-18T09:04:40;14.82;;;6.65;;
69783;SDS011;57054;51.978;4.498;2023-11-18T09:07:08;14.52;;;6.00;;
69783;SDS011;57054;51.978;4.498;2023-11-18T09:09:35;17.58;;;7.53;;
69783;SDS011;57054;51.978;4.498;2023-11-18T09:12:00;11.15;;;6.18;;
69783;SDS011;57054;51.978;4.498;2023-11-18T09:14:27;12.15;;;6.32;;
69783;SDS011;57054;51.978;4.498;2023-11-18T09:16:53;15.13;;;6.75;;
69783;SDS011;57054;51.978;4.498;2023-11-18T09:19:24;14.80;;;6.20;;
69783;SDS011;57054;51.978;4.498;2023-11-18T09:21:49;16.13;;;5.57;;
69783;SDS011;57054;51.978;4.498;2023-11-18T09:24:16;11.18;;;5.82;;
69783;SDS011;57054;51.978;4.498;2023-11-18T09:26:44;12.38;;;6.25;;
69783;SDS011;57054;51.978;4.498;2023-11-18T09:29:13;16.20;;;6.38;;
69783;SDS011;57054;51.978;4.498;2023-11-18T09:31:42;12.07;;;6.95;;
69783;SDS011;57054;51.978;4.498;2023-11-18T09:34:13;13.80;;;5.13;;
69783;SDS011;57054;51.978;4.498;2023-11-18T09:36:42;9.65;;;5.00;;
69783;SDS011;57054;51.978;4.498;2023-11-18T09:39:10;12.70;;;5.30;;
69783;SDS011;57054;51.978;4.498;2023-11-18T09:41:54;6.93;;;4.82;;
69783;SDS011;57054;51.978;4.498;2023-11-18T09:44:23;10.95;;;5.68;;
69783;SDS011;57054;51.978;4.498;2023-11-18T09:46:52;6.85;;;4.55;;
69783;SDS011;57054;51.978;4.498;2023-11-18T09:49:31;12.98;;;5.43;;
69783;SDS011;57054;51.978;4.498;2023-11-18T09:52:04;11.73;;;4.93;;
69783;SDS011;57054;51.978;4.498;2023-11-18T09:54:39;12.30;;;5.03;;
69783;SDS011;57054;51.978;4.498;2023-11-18T09:57:16;13.57;;;5.10;;
69783;SDS011;57054;51.978;4.498;2023-11-18T10:00:01;11.13;;;5.20;;
69783;SDS011;57054;51.978;4.498;2023-11-18T10:02:49;12.52;;;4.72;;
69783;SDS011;57054;51.978;4.498;2023-11-18T10:05:15;12.27;;;4.18;;
69783;SDS011;57054;51.978;4.498;2023-11-18T10:07:45;9.52;;;4.57;;
69783;SDS011;57054;51.978;4.498;2023-11-18T10:10:13;12.10;;;4.90;;
69783;SDS011;57054;51.978;4.498;2023-11-18T10:12:45;13.55;;;4.38;;
69783;SDS011;57054;51.978;4.498;2023-11-18T10:15:17;8.85;;;4.43;;
69783;SDS011;57054;51.978;4.498;2023-11-18T10:17:44;8.85;;;4.25;;
69783;SDS011;57054;51.978;4.498;2023-11-18T10:23:16;6.10;;;3.78;;
69783;SDS011;57054;51.978;4.498;2023-11-18T10:25:46;5.95;;;3.38;;
69783;SDS011;57054;51.978;4.498;2023-11-18T10:30:52;5.03;;;4.53;;
69783;SDS011;57054;51.978;4.498;2023-11-18T10:33:18;6.57;;;4.13;;
69783;SDS011;57054;51.978;4.498;2023-11-18T10:35:50;8.75;;;3.80;;
69783;SDS011;57054;51.978;4.498;2023-11-18T10:38:17;6.60;;;4.07;;
69783;SDS011;57054;51.978;4.498;2023-11-18T10:40:43;7.40;;;4.00;;
69783;SDS011;57054;51.978;4.498;2023-11-18T10:43:09;8.15;;;4.15;;
69783;SDS011;57054;51.978;4.498;2023-11-18T10:45:37;13.30;;;3.70;;
69783;SDS011;57054;51.978;4.498;2023-11-18T10:48:05;7.22;;;3.42;;
69783;SDS011;57054;51.978;4.498;2023-11-18T10:50:31;10.05;;;4.30;;
69783;SDS011;57054;51.978;4.498;2023-11-18T10:53:00;7.35;;;3.53;;
69783;SDS011;57054;51.978;4.498;2023-11-18T10:55:37;8.00;;;4.05;;
69783;SDS011;57054;51.978;4.498;2023-11-18T10:58:05;9.85;;;3.88;;
69783;SDS011;57054;51.978;4.498;2023-11-18T11:00:51;8.18;;;3.97;;
69783;SDS011;57054;51.978;4.498;2023-11-18T11:03:25;7.80;;;4.45;;
69783;SDS011;57054;51.978;4.498;2023-11-18T11:05:51;12.88;;;4.38;;
69783;SDS011;57054;51.978;4.498;2023-11-18T11:08:19;12.57;;;4.13;;
69783;SDS011;57054;51.978;4.498;2023-11-18T11:10:45;14.63;;;4.07;;
69783;SDS011;57054;51.978;4.498;2023-11-18T11:13:16;10.43;;;4.40;;
69783;SDS011;57054;51.978;4.498;2023-11-18T11:15:43;11.93;;;4.45;;
69783;SDS011;57054;51.978;4.498;2023-11-18T11:18:11;9.00;;;4.00;;
69783;SDS011;57054;51.978;4.498;2023-11-18T11:23:39;6.82;;;3.88;;
69783;SDS011;57054;51.978;4.498;2023-11-18T11:32:55;9.77;;;3.63;;
69783;SDS011;57054;51.978;4.498;2023-11-18T11:34:56;7.57;;;3.58;;
69783;SDS011;57054;51.978;4.498;2023-11-18T11:37:30;4.93;;;3.10;;
69783;SDS011;57054;51.978;4.498;2023-11-18T11:39:59;6.53;;;3.42;;
69783;SDS011;57054;51.978;4.498;2023-11-18T11:42:29;5.03;;;3.50;;
69783;SDS011;57054;51.978;4.498;2023-11-18T11:44:56;3.78;;;3.20;;
69783;SDS011;57054;51.978;4.498;2023-11-18T11:47:23;8.63;;;3.60;;
69783;SDS011;57054;51.978;4.498;2023-11-18T11:50:06;5.95;;;3.47;;
69783;SDS011;57054;51.978;4.498;2023-11-18T11:52:47;6.45;;;3.38;;
69783;SDS011;57054;51.978;4.498;2023-11-18T11:55:29;5.63;;;3.58;;
69783;SDS011;57054;51.978;4.498;2023-11-18T11:58:03;8.63;;;3.47;;
69783;SDS011;57054;51.978;4.498;2023-11-18T12:00:31;3.20;;;2.85;;
69783;SDS011;57054;51.978;4.498;2023-11-18T12:03:02;5.53;;;2.70;;
69783;SDS011;57054;51.978;4.498;2023-11-18T12:05:35;6.10;;;3.10;;
69783;SDS011;57054;51.978;4.498;2023-11-18T12:08:08;5.00;;;3.00;;
69783;SDS011;57054;51.978;4.498;2023-11-18T12:10:38;3.03;;;2.70;;
69783;SDS011;57054;51.978;4.498;2023-11-18T12:13:09;5.28;;;3.08;;
69783;SDS011;57054;51.978;4.498;2023-11-18T12:16:14;6.47;;;3.17;;
69783;SDS011;57054;51.978;4.498;2023-11-18T12:18:35;3.85;;;2.72;;
69783;SDS011;57054;51.978;4.498;2023-11-18T12:21:02;6.68;;;3.38;;
69783;SDS011;57054;51.978;4.498;2023-11-18T12:23:29;10.50;;;3.13;;
69783;SDS011;57054;51.978;4.498;2023-11-18T12:25:55;3.55;;;3.00;;
69783;SDS011;57054;51.978;4.498;2023-11-18T12:30:59;3.35;;;3.05;;
69783;SDS011;57054;51.978;4.498;2023-11-18T12:41:38;5.57;;;3.50;;
69783;SDS011;57054;51.978;4.498;2023-11-18T12:46:55;3.53;;;3.22;;
69783;SDS011;57054;51.978;4.498;2023-11-18T12:49:36;7.07;;;3.38;;
69783;SDS011;57054;51.978;4.498;2023-11-18T12:52:06;3.58;;;3.28;;
69783;SDS011;57054;51.978;4.498;2023-11-18T12:54:33;4.65;;;3.08;;
69783;SDS011;57054;51.978;4.498;2023-11-18T12:57:02;3.55;;;3.25;;
69783;SDS011;57054;51.978;4.498;2023-11-18T12:59:28;3.67;;;3.03;;
69783;SDS011;57054;51.978;4.498;2023-11-18T13:01:55;3.10;;;2.90;;
69783;SDS011;57054;51.978;4.498;2023-11-18T13:04:23;4.18;;;3.10;;
69783;SDS011;57054;51.978;4.498;2023-11-18T13:06:49;3.80;;;3.00;;
69783;SDS011;57054;51.978;4.498;2023-11-18T13:09:16;3.13;;;2.92;;
69783;SDS011;57054;51.978;4.498;2023-11-18T13:11:57;3.53;;;2.97;;
69783;SDS011;57054;51.978;4.498;2023-11-18T13:16:51;3.45;;;3.25;;
69783;SDS011;57054;51.978;4.498;2023-11-18T13:19:27;7.40;;;3.00;;
69783;SDS011;57054;51.978;4.498;2023-11-18T13:21:59;4.05;;;3.00;;
69783;SDS011;57054;51.978;4.498;2023-11-18T13:24:28;2.95;;;2.75;;
69783;SDS011;57054;51.978;4.498;2023-11-18T13:29:21;3.90;;;2.75;;
69783;SDS011;57054;51.978;4.498;2023-11-18T13:31:47;2.50;;;2.30;;
69783;SDS011;57054;51.978;4.498;2023-11-18T13:34:13;2.75;;;2.55;;
69783;SDS011;57054;51.978;4.498;2023-11-18T13:36:40;6.03;;;3.15;;
69783;SDS011;57054;51.978;4.498;2023-11-18T13:39:08;2.60;;;2.42;;
69783;SDS011;57054;51.978;4.498;2023-11-18T13:41:41;7.78;;;2.40;;
69783;SDS011;57054;51.978;4.498;2023-11-18T13:44:07;2.17;;;1.98;;
69783;SDS011;57054;51.978;4.498;2023-11-18T13:46:37;2.15;;;1.80;;
69783;SDS011;57054;51.978;4.498;2023-11-18T13:49:06;9.43;;;2.22;;
69783;SDS011;57054;51.978;4.498;2023-11-18T13:51:32;1.98;;;1.80;;
69783;SDS011;57054;51.978;4.498;2023-11-18T13:54:00;2.00;;;1.90;;
69783;SDS011;57054;51.978;4.498;2023-11-18T13:56:26;2.38;;;2.10;;
69783;SDS011;57054;51.978;4.498;2023-11-18T13:58:53;2.20;;;2.00;;
69783;SDS011;57054;51.978;4.498;2023-11-18T14:01:19;2.50;;;2.30;;
69783;SDS011;57054;51.978;4.498;2023-11-18T14:03:45;1.55;;;1.45;;
69783;SDS011;57054;51.978;4.498;2023-11-18T14:06:12;1.88;;;1.77;;
69783;SDS011;57054;51.978;4.498;2023-11-18T14:08:42;2.53;;;1.58;;
69783;SDS011;57054;51.978;4.498;2023-11-18T14:11:08;3.28;;;1.50;;
69783;SDS011;57054;51.978;4.498;2023-11-18T14:13:35;1.65;;;1.55;;
69783;SDS011;57054;51.978;4.498;2023-11-18T14:16:01;1.60;;;1.50;;
69783;SDS011;57054;51.978;4.498;2023-11-18T14:18:27;1.30;;;1.20;;
69783;SDS011;57054;51.978;4.498;2023-11-18T14:20:52;1.85;;;1.55;;
69783;SDS011;57054;51.978;4.498;2023-11-18T14:23:19;2.47;;;1.63;;
69783;SDS011;57054;51.978;4.498;2023-11-18T14:25:46;1.60;;;1.50;;
69783;SDS011;57054;51.978;4.498;2023-11-18T14:28:12;1.60;;;1.50;;
69783;SDS011;57054;51.978;4.498;2023-11-18T14:30:38;2.38;;;1.52;;
69783;SDS011;57054;51.978;4.498;2023-11-18T14:33:03;1.40;;;1.30;;
69783;SDS011;57054;51.978;4.498;2023-11-18T14:35:29;1.75;;;1.60;;
69783;SDS011;57054;51.978;4.498;2023-11-18T14:37:54;1.33;;;1.23;;
69783;SDS011;57054;51.978;4.498;2023-11-18T14:40:21;1.48;;;1.38;;
69783;SDS011;57054;51.978;4.498;2023-11-18T14:42:49;4.20;;;1.40;;
69783;SDS011;57054;51.978;4.498;2023-11-18T14:45:14;1.10;;;1.10;;
69783;SDS011;57054;51.978;4.498;2023-11-18T14:47:41;1.90;;;1.80;;
69783;SDS011;57054;51.978;4.498;2023-11-18T14:50:10;5.75;;;3.95;;
69783;SDS011;57054;51.978;4.498;2023-11-18T14:52:51;4.00;;;2.60;;
69783;SDS011;57054;51.978;4.498;2023-11-18T14:55:23;1.92;;;1.83;;
69783;SDS011;57054;51.978;4.498;2023-11-18T14:57:50;1.92;;;1.83;;
69783;SDS011;57054;51.978;4.498;2023-11-18T15:00:16;1.95;;;1.85;;
69783;SDS011;57054;51.978;4.498;2023-11-18T15:02:45;2.60;;;2.40;;
69783;SDS011;57054;51.978;4.498;2023-11-18T15:05:14;2.30;;;2.17;;
69783;SDS011;57054;51.978;4.498;2023-11-18T15:07:43;2.42;;;2.22;;
69783;SDS011;57054;51.978;4.498;2023-11-18T15:10:10;2.40;;;2.30;;
69783;SDS011;57054;51.978;4.498;2023-11-18T15:12:36;2.65;;;2.50;;
69783;SDS011;57054;51.978;4.498;2023-11-18T15:15:02;2.50;;;2.30;;
69783;SDS011;57054;51.978;4.498;2023-11-18T15:17:29;2.50;;;2.30;;